Time;durP1;ratioP1;P1;durP2;ratioP2;P2;SDS_P1;SDS_P2;PMS_P1;PMS_P2;Temp;Humidity;BMP_temperature;BMP_pressure;BME280_temperature;BME280_humidity;BME280_pressure;Samples;Min_cycle;Max_cycle;Signal;HPM_P1;HPM_P2
2022/03/17 00:01:57;;;;;;;61.17;32.67;;;;;;;5.73;100.00;100152.34;5071651;28;20212;-63
2022/03/17 00:04:24;;;;;;;56.80;33.93;;;;;;;5.83;100.00;100151.50;5071426;28;20656;-63
2022/03/17 00:06:50;;;;;;;54.10;34.70;;;;;;;5.86;100.00;100161.72;5071729;28;20215;-63
2022/03/17 00:09:19;;;;;;;74.73;37.90;;;;;;;5.76;100.00;100165.06;5071436;28;20232;-63
2022/03/17 00:11:46;;;;;;;64.67;33.83;;;;;;;5.76;100.00;100176.09;5067240;28;20271;-63
2022/03/17 00:14:13;;;;;;;61.07;33.67;;;;;;;5.79;100.00;100175.25;5051684;28;20196;-63
2022/03/17 00:16:40;;;;;;;61.47;36.30;;;;;;;5.69;100.00;100169.28;5051688;28;20688;-63
2022/03/17 00:19:09;;;;;;;55.30;33.37;;;;;;;5.72;100.00;100166.75;5051534;28;20228;-63
2022/03/17 00:21:37;;;;;;;56.70;33.93;;;;;;;5.75;100.00;100168.47;5051439;28;20217;-63
2022/03/17 00:24:06;;;;;;;62.53;34.90;;;;;;;5.72;100.00;100183.69;5051499;28;20201;-63
2022/03/17 00:26:35;;;;;;;56.23;32.20;;;;;;;5.70;100.00;100190.50;5051401;28;20696;-63
2022/03/17 00:29:03;;;;;;;56.33;33.27;;;;;;;5.71;100.00;100189.66;5051495;28;20197;-63
2022/03/17 00:31:30;;;;;;;62.77;35.60;;;;;;;5.72;100.00;100186.25;5067565;28;20287;-63
2022/03/17 00:33:57;;;;;;;54.93;32.53;;;;;;;5.81;100.00;100192.22;5071197;28;20295;-63
2022/03/17 00:36:24;;;;;;;55.77;32.90;;;;;;;5.80;100.00;100192.22;5062528;28;20577;-63
2022/03/17 00:38:51;;;;;;;56.00;33.00;;;;;;;5.73;100.00;100190.50;5062305;28;20295;-63
2022/03/17 00:41:18;;;;;;;51.33;32.40;;;;;;;5.69;100.00;100183.69;5070907;28;20573;-63
2022/03/17 00:43:46;;;;;;;54.83;31.37;;;;;;;5.78;100.00;100188.84;5071064;28;20694;-63
2022/03/17 00:46:13;;;;;;;55.67;30.57;;;;;;;5.74;100.00;100194.75;5068321;28;20208;-63
2022/03/17 00:48:40;;;;;;;56.77;31.13;;;;;;;5.66;100.00;100183.69;5057706;28;20642;-63
2022/03/17 00:51:07;;;;;;;54.37;31.90;;;;;;;5.72;100.00;100202.38;5061705;28;20291;-63
2022/03/17 00:53:33;;;;;;;51.77;30.27;;;;;;;5.66;100.00;100199.81;5068359;28;20291;-63
2022/03/17 00:56:00;;;;;;;52.33;29.73;;;;;;;5.66;100.00;100198.97;5070849;28;20668;-62
2022/03/17 00:58:29;;;;;;;47.17;29.30;;;;;;;5.57;100.00;100204.03;5070930;28;20728;-63
2022/03/17 01:00:57;;;;;;;52.05;29.55;;;;;;;5.62;100.00;100202.38;5070767;28;20196;-63
2022/03/17 01:03:25;;;;;;;45.37;28.90;;;;;;;5.59;100.00;100212.53;5070720;28;20211;-63
2022/03/17 01:05:53;;;;;;;54.60;33.77;;;;;;;5.65;100.00;100215.09;5069040;28;20196;-63
2022/03/17 01:08:20;;;;;;;57.07;32.97;;;;;;;5.62;100.00;100212.53;5070869;28;20203;-63
2022/03/17 01:10:47;;;;;;;52.20;29.40;;;;;;;5.63;100.00;100219.31;5050698;28;20232;-63
2022/03/17 01:13:14;;;;;;;42.40;27.27;;;;;;;5.46;100.00;100201.44;5050895;28;20279;-63
2022/03/17 01:15:41;;;;;;;40.83;26.60;;;;;;;5.59;100.00;100222.69;5050812;28;20232;-63
2022/03/17 01:18:09;;;;;;;46.67;27.90;;;;;;;5.68;100.00;100235.44;5050766;28;20291;-63
2022/03/17 01:20:36;;;;;;;41.73;27.00;;;;;;;5.76;100.00;100234.59;5050557;28;20209;-63
2022/03/17 01:23:04;;;;;;;42.50;27.90;;;;;;;5.69;100.00;100235.44;5070596;28;20223;-63
2022/03/17 01:25:32;;;;;;;47.60;29.40;;;;;;;5.74;100.00;100233.75;5070766;28;20644;-63
2022/03/17 01:27:59;;;;;;;47.57;28.67;;;;;;;5.82;100.00;100236.31;5070483;28;20285;-63
2022/03/17 01:30:26;;;;;;;51.33;29.73;;;;;;;5.87;100.00;100238.91;5070911;28;20763;-63
2022/03/17 01:32:53;;;;;;;47.80;28.63;;;;;;;5.86;100.00;100237.19;5070189;28;20203;-63
2022/03/17 01:35:21;;;;;;;45.03;28.33;;;;;;;5.85;100.00;100240.56;5071392;28;20227;-63
2022/03/17 01:37:48;;;;;;;48.97;29.90;;;;;;;5.74;100.00;100227.81;5074395;28;20215;-63
2022/03/17 01:40:15;;;;;;;52.37;29.23;;;;;;;5.70;100.00;100226.09;5074466;28;20291;-63
2022/03/17 01:42:42;;;;;;;53.37;30.13;;;;;;;5.71;100.00;100223.59;5065847;28;20220;-63
2022/03/17 01:45:10;;;;;;;45.70;28.10;;;;;;;5.78;100.00;100232.09;5056688;28;20300;-63
2022/03/17 01:47:37;;;;;;;44.17;28.73;;;;;;;5.77;100.00;100238.00;5066213;28;20231;-63
2022/03/17 01:50:07;;;;;;;46.63;28.50;;;;;;;5.76;100.00;100242.25;5056705;28;20201;-63
2022/03/17 01:52:36;;;;;;;48.20;30.37;;;;;;;5.73;100.00;100244.78;5074509;28;20717;-63
2022/03/17 01:55:04;;;;;;;54.40;31.70;;;;;;;5.80;100.00;100249.03;5074003;28;20672;-63
2022/03/17 01:57:31;;;;;;;50.43;30.93;;;;;;;5.72;100.00;100232.03;5074119;28;20227;-63
2022/03/17 02:00:00;;;;;;;53.67;32.27;;;;;;;5.60;100.00;100242.19;5073925;28;20203;-63
2022/03/17 02:02:27;;;;;;;53.90;33.07;;;;;;;5.59;100.00;100233.69;5059347;28;20224;-63
2022/03/17 02:04:55;;;;;;;54.43;32.97;;;;;;;5.54;100.00;100232.84;5054268;28;20730;-63
2022/03/17 02:07:23;;;;;;;57.83;34.80;;;;;;;5.50;100.00;100227.72;5073952;28;20207;-63
2022/03/17 02:09:51;;;;;;;52.20;31.87;;;;;;;5.50;100.00;100235.38;5073733;28;20196;-64
2022/03/17 02:15:05;;;;;;;49.73;31.70;;;;;;;5.40;100.00;100241.25;5073697;28;20287;-63
2022/03/17 02:17:33;;;;;;;51.73;31.47;;;;;;;5.40;100.00;100248.88;5073977;28;20195;-63
2022/03/17 02:20:02;;;;;;;53.40;31.93;;;;;;;5.36;100.00;100254.81;5073415;28;20207;-63
2022/03/17 02:22:30;;;;;;;52.33;33.73;;;;;;;5.37;100.00;100252.25;5073860;28;20893;-63
2022/03/17 02:27:46;;;;;;;51.00;32.07;;;;;;;5.33;100.00;100254.81;5053968;28;20695;-63
2022/03/17 02:30:15;;;;;;;55.03;33.10;;;;;;;5.29;100.00;100252.25;5053533;28;20577;-63
2022/03/17 02:32:42;;;;;;;49.73;31.50;;;;;;;5.35;100.00;100258.19;5053551;28;20193;-63
2022/03/17 02:35:11;;;;;;;58.43;32.10;;;;;;;5.40;100.00;100281.94;5053321;28;20296;-63
2022/03/17 02:37:39;;;;;;;54.97;32.40;;;;;;;5.35;100.00;100273.44;5053850;28;20728;-64
2022/03/17 02:40:09;;;;;;;56.20;33.10;;;;;;;5.47;100.00;100288.75;5057849;28;20280;-63
2022/03/17 02:42:38;;;;;;;51.60;31.73;;;;;;;5.48;100.00;100290.47;5056312;28;20596;-63
2022/03/17 02:45:07;;;;;;;51.67;33.53;;;;;;;5.50;100.00;100293.84;5064202;28;20660;-63
2022/03/17 02:47:34;;;;;;;58.57;34.80;;;;;;;5.53;100.00;100304.03;5052174;28;20558;-63
2022/03/17 02:50:01;;;;;;;58.00;32.43;;;;;;;5.52;100.00;100304.91;5053034;28;20588;-63
2022/03/17 02:52:29;;;;;;;51.07;32.30;;;;;;;5.43;100.00;100292.16;5053242;28;20201;-63
2022/03/17 02:54:56;;;;;;;49.40;31.10;;;;;;;5.55;100.00;100312.53;5053350;28;20651;-63
2022/03/17 02:57:25;;;;;;;49.70;30.40;;;;;;;5.48;100.00;100295.56;5052910;28;20311;-63
2022/03/17 02:59:53;;;;;;;50.70;30.87;;;;;;;5.55;100.00;100315.09;5061446;28;20200;-63
2022/03/17 03:02:20;;;;;;;53.53;34.03;;;;;;;5.54;100.00;100310.84;5068951;28;20246;-63
2022/03/17 03:04:46;;;;;;;56.53;33.70;;;;;;;5.52;100.00;100321.00;5069751;28;20580;-63
2022/03/17 03:07:13;;;;;;;54.13;33.37;;;;;;;5.56;100.00;100321.84;5054485;28;20283;-63
2022/03/17 03:09:41;;;;;;;59.70;36.47;;;;;;;5.59;100.00;100319.34;5052982;28;20223;-63
2022/03/17 03:12:09;;;;;;;59.93;36.13;;;;;;;5.53;100.00;100321.84;5052601;28;20204;-63
2022/03/17 03:14:37;;;;;;;62.73;38.30;;;;;;;5.49;100.00;100327.78;5064005;28;20776;-63
2022/03/17 03:17:06;;;;;;;72.90;41.40;;;;;;;5.50;100.00;100335.41;5073025;28;20200;-63
2022/03/17 03:19:33;;;;;;;79.17;43.63;;;;;;;5.55;100.00;100330.34;5072483;28;20196;-64
2022/03/17 03:22:01;;;;;;;70.17;40.90;;;;;;;5.55;100.00;100343.06;5072675;28;20310;-63
2022/03/17 03:24:28;;;;;;;83.23;44.57;;;;;;;5.53;100.00;100335.41;5072396;28;20580;-63
2022/03/17 03:26:54;;;;;;;72.40;42.23;;;;;;;5.62;100.00;100337.16;5072516;28;20282;-63
2022/03/17 03:29:22;;;;;;;68.37;39.67;;;;;;;5.70;100.00;100343.97;5072201;28;20200;-63
2022/03/17 03:31:51;;;;;;;79.10;41.63;;;;;;;5.79;100.00;100343.16;5072270;28;20200;-63
2022/03/17 03:34:18;;;;;;;68.00;39.43;;;;;;;5.85;100.00;100350.81;5072024;28;20207;-64
2022/03/17 03:39:29;;;;;;;59.63;37.63;;;;;;;6.05;100.00;100358.56;5064540;28;20210;-63
2022/03/17 03:41:57;;;;;;;62.07;36.73;;;;;;;6.10;100.00;100365.38;5063885;28;20200;-63
2022/03/17 03:44:24;;;;;;;59.87;36.13;;;;;;;6.15;100.00;100366.22;5052252;28;20280;-63
2022/03/17 03:46:52;;;;;;;57.87;35.53;;;;;;;6.12;100.00;100373.88;5063805;28;20287;-63
2022/03/17 03:49:20;;;;;;;64.37;38.87;;;;;;;6.19;100.00;100369.66;5072011;28;20196;-63
2022/03/17 03:51:47;;;;;;;59.13;35.63;;;;;;;6.17;100.00;100374.72;5054367;28;20740;-64
2022/03/17 03:54:15;;;;;;;68.47;40.50;;;;;;;6.16;100.00;100365.41;5052248;28;20196;-63
2022/03/17 03:56:42;;;;;;;71.13;42.07;;;;;;;6.21;100.00;100373.03;5051592;28;20278;-63
2022/03/17 03:59:09;;;;;;;79.30;46.37;;;;;;;6.27;100.00;100378.13;5051706;28;20204;-63
2022/03/17 04:01:36;;;;;;;83.60;46.97;;;;;;;6.27;100.00;100378.13;5051733;28;20307;-63
2022/03/17 04:04:05;;;;;;;84.67;49.23;;;;;;;6.28;100.00;100375.63;5062976;28;20227;-63
2022/03/17 04:06:33;;;;;;;61.10;39.60;;;;;;;6.29;100.00;100379.00;5071593;28;20211;-63
2022/03/17 04:09:00;;;;;;;60.30;37.80;;;;;;;6.33;100.00;100383.28;5071710;28;20207;-63
2022/03/17 04:11:26;;;;;;;57.27;35.70;;;;;;;6.38;100.00;100385.81;5071689;28;20683;-63
2022/03/17 04:13:53;;;;;;;59.10;32.30;;;;;;;6.40;100.00;100379.06;5071404;28;20199;-63
2022/03/17 04:16:21;;;;;;;49.73;33.20;;;;;;;6.41;100.00;100386.66;5058438;28;20300;-63
2022/03/17 04:18:48;;;;;;;59.87;34.87;;;;;;;6.46;100.00;100389.25;5060547;28;20204;-63
2022/03/17 04:21:17;;;;;;;53.83;32.83;;;;;;;6.48;100.00;100393.50;5071731;28;20303;-64
2022/03/17 04:23:44;;;;;;;55.47;31.80;;;;;;;6.45;100.00;100387.53;5071160;28;20222;-63
2022/03/17 04:26:11;;;;;;;55.20;33.47;;;;;;;6.45;100.00;100403.69;5058987;28;20204;-63
2022/03/17 04:28:38;;;;;;;49.07;30.57;;;;;;;6.42;100.00;100407.91;5051372;28;20308;-63
2022/03/17 04:31:05;;;;;;;51.07;30.50;;;;;;;6.44;100.00;100416.38;5059793;28;20283;-63
2022/03/17 04:33:32;;;;;;;55.33;32.53;;;;;;;6.32;100.00;100407.88;5066412;28;20196;-63
2022/03/17 04:35:59;;;;;;;51.47;30.13;;;;;;;6.34;100.00;100416.38;5055044;28;20228;-63
2022/03/17 04:38:27;;;;;;;53.13;31.20;;;;;;;6.27;100.00;100419.72;5065635;28;20723;-63
2022/03/17 04:40:54;;;;;;;48.90;30.77;;;;;;;6.15;100.00;100409.50;5055534;28;20208;-63
2022/03/17 04:43:21;;;;;;;53.93;33.13;;;;;;;6.17;100.00;100412.91;5057733;28;20216;-63
2022/03/17 04:45:48;;;;;;;72.67;39.13;;;;;;;6.15;100.00;100414.59;5059255;28;20290;-63
2022/03/17 04:48:15;;;;;;;90.83;48.37;;;;;;;6.15;100.00;100427.34;5055154;28;20227;-63
2022/03/17 04:50:42;;;;;;;83.37;44.70;;;;;;;6.14;100.00;100428.16;5062933;28;20211;-63
2022/03/17 04:53:29;;;;;;;77.30;43.70;;;;;;;6.10;100.00;100431.56;5068216;28;20200;-63
2022/03/17 04:56:00;;;;;;;66.80;36.60;;;;;;;6.04;100.00;100434.06;5059196;28;20228;-63
2022/03/17 04:58:28;;;;;;;53.93;33.23;;;;;;;6.05;100.00;100443.41;5051065;28;20581;-63
2022/03/17 05:00:55;;;;;;;55.23;31.47;;;;;;;6.00;100.00;100449.34;5059724;28;20228;-63
2022/03/17 05:03:23;;;;;;;59.37;31.53;;;;;;;5.97;100.00;100441.69;5061727;28;20699;-63
2022/03/17 05:05:50;;;;;;;54.73;31.63;;;;;;;6.02;100.00;100457.81;5063173;28;20681;-64
2022/03/17 05:08:17;;;;;;;50.03;31.17;;;;;;;6.06;100.00;100462.94;5070680;28;20664;-63
2022/03/17 05:10:45;;;;;;;53.03;32.20;;;;;;;6.07;100.00;100462.09;5062137;28;20291;-63
2022/03/17 05:13:13;;;;;;;51.43;32.67;;;;;;;6.05;100.00;100463.78;5068588;28;20196;-64
2022/03/17 05:15:41;;;;;;;49.03;32.47;;;;;;;6.06;100.00;100467.16;5057761;28;20215;-63
2022/03/17 05:18:09;;;;;;;54.50;33.60;;;;;;;6.10;100.00;100469.75;5058874;28;21039;-63
2022/03/17 05:20:37;;;;;;;55.50;35.07;;;;;;;6.08;100.00;100471.41;5051195;28;20199;-63
2022/03/17 05:23:05;;;;;;;56.60;34.47;;;;;;;6.20;100.00;100478.28;5066350;28;20224;-63
2022/03/17 05:25:32;;;;;;;57.53;35.27;;;;;;;6.17;100.00;100476.56;5058207;28;20192;-63
2022/03/17 05:27:59;;;;;;;54.83;35.47;;;;;;;6.16;100.00;100482.50;5050846;28;20554;-63
2022/03/17 05:30:28;;;;;;;55.17;33.47;;;;;;;6.15;100.00;100480.81;5059061;28;20200;-63
2022/03/17 05:32:56;;;;;;;71.57;39.73;;;;;;;6.16;100.00;100492.69;5060213;28;20200;-63
2022/03/17 05:35:23;;;;;;;83.10;45.00;;;;;;;6.11;100.00;100484.16;5067790;28;20211;-63
2022/03/17 05:37:50;;;;;;;87.83;45.50;;;;;;;6.11;100.00;100473.13;5064970;28;20212;-63
2022/03/17 05:40:18;;;;;;;74.53;44.03;;;;;;;6.15;100.00;100490.97;5060018;28;20691;-63
2022/03/17 05:42:46;;;;;;;74.07;45.10;;;;;;;6.30;100.00;100493.59;5065562;28;20221;-63
2022/03/17 05:45:15;;;;;;;64.33;39.80;;;;;;;6.32;100.00;100494.47;5050252;28;20292;-63
2022/03/17 05:47:45;;;;;;;68.37;39.40;;;;;;;6.35;100.00;100503.81;5054958;28;20200;-63
2022/03/17 05:50:15;;;;;;;60.13;36.67;;;;;;;6.21;100.00;100506.28;5069841;28;20284;-63
2022/03/17 05:52:43;;;;;;;62.27;36.67;;;;;;;6.21;100.00;100503.75;5063139;28;20203;-63
2022/03/17 05:55:11;;;;;;;64.83;37.57;;;;;;;6.28;100.00;100507.16;5054041;28;20208;-63
2022/03/17 05:57:38;;;;;;;54.73;33.63;;;;;;;6.25;100.00;100518.19;5058570;28;20311;-64
2022/03/17 06:00:08;;;;;;;63.07;35.10;;;;;;;6.25;100.00;100517.34;5066346;28;20234;-64
2022/03/17 06:02:35;;;;;;;62.33;35.77;;;;;;;6.27;100.00;100518.19;5058788;28;20207;-63
2022/03/17 06:05:04;;;;;;;57.43;34.93;;;;;;;6.13;100.00;100502.00;5051820;28;20205;-63
2022/03/17 06:07:37;;;;;;;52.07;34.30;;;;;;;6.22;100.00;100523.28;5058825;28;20750;-64
2022/03/17 06:10:05;;;;;;;54.67;31.77;;;;;;;6.29;100.00;100535.19;5060372;28;20643;-63
2022/03/17 06:12:32;;;;;;;61.13;35.07;;;;;;;6.25;100.00;100538.56;5060572;28;20765;-64
2022/03/17 06:15:00;;;;;;;71.53;39.30;;;;;;;6.26;100.00;100542.81;5064728;28;20790;-66
2022/03/17 06:17:37;;;;;;;73.23;43.47;;;;;;;6.29;100.00;100555.56;5059751;28;20228;-66
2022/03/17 06:20:09;;;;;;;60.20;39.37;;;;;;;6.35;100.00;100559.84;5070483;28;20203;-66
2022/03/17 06:22:38;;;;;;;61.13;37.07;;;;;;;6.38;100.00;100553.91;5055816;28;20204;-66
2022/03/17 06:25:06;;;;;;;63.27;37.67;;;;;;;6.35;100.00;100559.84;5067869;28;20196;-66
2022/03/17 06:27:34;;;;;;;67.07;38.07;;;;;;;6.39;100.00;100565.81;5055138;28;20201;-66
2022/03/17 06:30:01;;;;;;;67.93;38.93;;;;;;;6.32;100.00;100575.97;5065491;28;20195;-66
2022/03/17 06:32:28;;;;;;;61.70;35.00;;;;;;;6.34;100.00;100571.72;5058343;28;20669;-66
2022/03/17 06:34:55;;;;;;;64.57;34.57;;;;;;;6.34;100.00;100588.69;5064879;28;20211;-66
2022/03/17 06:37:23;;;;;;;60.70;34.87;;;;;;;6.33;100.00;100592.91;5053583;28;20201;-66
2022/03/17 06:39:50;;;;;;;72.10;37.90;;;;;;;6.33;100.00;100592.91;5062541;28;20192;-66
2022/03/17 06:42:17;;;;;;;65.87;36.20;;;;;;;6.34;100.00;100601.41;5070757;28;20247;-66
2022/03/17 06:44:44;;;;;;;60.60;37.93;;;;;;;6.34;100.00;100599.72;5070696;28;20714;-66
2022/03/17 06:47:11;;;;;;;71.70;39.30;;;;;;;6.36;100.00;100602.31;5067616;28;20196;-66
2022/03/17 06:49:38;;;;;;;78.30;42.37;;;;;;;6.39;100.00;100611.66;5063875;28;20231;-66
2022/03/17 06:52:05;;;;;;;77.63;43.13;;;;;;;6.41;100.00;100621.00;5057040;28;20224;-66
2022/03/17 06:54:33;;;;;;;67.53;41.37;;;;;;;6.46;100.00;100618.50;5061451;28;20212;-66
2022/03/17 06:57:00;;;;;;;66.80;39.63;;;;;;;6.49;100.00;100619.34;5057078;28;20220;-66
2022/03/17 06:59:27;;;;;;;65.57;38.17;;;;;;;6.48;100.00;100621.88;5073139;28;20248;-66
2022/03/17 07:01:54;;;;;;;57.13;34.80;;;;;;;6.53;100.00;100625.28;5056195;28;20300;-66
2022/03/17 07:04:21;;;;;;;58.77;35.70;;;;;;;6.54;100.00;100632.09;5073107;28;20220;-66
2022/03/17 07:06:48;;;;;;;63.77;35.90;;;;;;;6.55;100.00;100629.59;5056453;28;20205;-66
2022/03/17 07:09:14;;;;;;;62.60;34.97;;;;;;;6.58;100.00;100629.59;5059233;28;20287;-66
2022/03/17 07:11:44;;;;;;;57.03;35.93;;;;;;;6.55;100.00;100629.59;5056274;28;20287;-66
2022/03/17 07:14:11;;;;;;;55.30;33.40;;;;;;;6.52;100.00;100631.25;5064534;28;20196;-66
2022/03/17 07:16:39;;;;;;;53.77;33.57;;;;;;;6.47;100.00;100632.91;5056397;28;20212;-66
2022/03/17 07:19:07;;;;;;;65.20;35.70;;;;;;;6.46;100.00;100639.72;5061043;28;20204;-66
2022/03/17 07:21:34;;;;;;;69.80;36.70;;;;;;;6.46;100.00;100636.31;5068744;28;20204;-65
2022/03/17 07:24:01;;;;;;;72.30;37.07;;;;;;;6.51;100.00;100644.81;5062831;28;20599;-66
2022/03/17 07:26:28;;;;;;;62.17;35.20;;;;;;;6.45;100.00;100642.25;5057306;28;20204;-66
2022/03/17 07:28:56;;;;;;;57.67;33.70;;;;;;;6.47;100.00;100655.84;5054325;28;20209;-66
2022/03/17 07:31:24;;;;;;;55.07;32.70;;;;;;;6.44;100.00;100655.81;5061058;28;20211;-66
2022/03/17 07:33:51;;;;;;;54.83;33.20;;;;;;;6.47;100.00;100655.84;5055323;28;20228;-66
2022/03/17 07:36:18;;;;;;;54.80;32.00;;;;;;;6.48;100.00;100665.19;5052306;28;20233;-66
2022/03/17 07:38:45;;;;;;;57.63;34.67;;;;;;;6.46;100.00;100660.09;5072234;28;20282;-66
2022/03/17 07:41:12;;;;;;;43.90;27.23;;;;;;;6.40;100.00;100654.13;5060546;28;20211;-65
2022/03/17 07:43:40;;;;;;;46.07;28.00;;;;;;;6.39;100.00;100667.69;5052471;28;20307;-66
2022/03/17 07:46:09;;;;;;;47.47;28.63;;;;;;;6.49;100.00;100674.53;5060439;28;20279;-66
2022/03/17 07:48:36;;;;;;;50.73;29.77;;;;;;;6.47;100.00;100677.06;5058056;28;20192;-66
2022/03/17 07:51:03;;;;;;;41.60;27.10;;;;;;;6.41;100.00;100653.25;5070327;28;20250;-66
2022/03/17 07:53:30;;;;;;;41.10;27.07;;;;;;;6.52;100.00;100684.75;5066733;28;20288;-65
2022/03/17 07:55:58;;;;;;;44.53;26.83;;;;;;;6.49;100.00;100684.72;5069289;28;20227;-66
2022/03/17 07:58:26;;;;;;;43.37;26.97;;;;;;;6.54;100.00;100683.91;5063657;28;20207;-66
2022/03/17 08:00:53;;;;;;;40.70;26.80;;;;;;;6.67;100.00;100700.13;5072089;28;20250;-66
2022/03/17 08:03:24;;;;;;;41.37;25.40;;;;;;;6.66;100.00;100693.31;5063670;28;20227;-66
2022/03/17 08:05:52;;;;;;;36.53;22.17;;;;;;;6.70;100.00;100706.09;5063674;28;20656;-66
2022/03/17 08:08:19;;;;;;;35.77;23.03;;;;;;;6.66;100.00;100694.19;5058025;28;20273;-66
2022/03/17 08:10:46;;;;;;;38.10;23.77;;;;;;;6.77;100.00;100712.09;5060276;28;20195;-66
2022/03/17 08:13:14;;;;;;;42.67;27.90;;;;;;;6.73;100.00;100706.13;5059470;28;20207;-66
2022/03/17 08:15:42;;;;;;;68.93;40.80;;;;;;;6.79;100.00;100703.59;5051873;28;20291;-66
2022/03/17 08:18:10;;;;;;;58.23;37.20;;;;;;;6.81;100.00;100699.38;5059862;28;20661;-66
2022/03/17 08:20:39;;;;;;;48.43;27.80;;;;;;;6.81;100.00;100699.38;5056733;28;20202;-66
2022/03/17 08:23:07;;;;;;;49.60;26.70;;;;;;;6.79;100.00;100705.28;5070467;28;20354;-66
2022/03/17 08:25:35;;;;;;;41.63;26.33;;;;;;;6.80;100.00;100707.00;5056747;28;20747;-66
2022/03/17 08:28:03;;;;;;;41.23;24.70;;;;;;;6.79;100.00;100700.19;5055209;28;20270;-66
2022/03/17 08:30:32;;;;;;;38.70;24.90;;;;;;;6.83;100.00;100717.22;5060879;28;20196;-66
2022/03/17 08:32:59;;;;;;;35.77;23.40;;;;;;;6.90;100.00;100713.88;5055580;28;20192;-66
2022/03/17 08:35:27;;;;;;;38.93;23.77;;;;;;;6.98;100.00;100709.66;5063373;28;20200;-66
2022/03/17 08:37:57;;;;;;;36.67;21.30;;;;;;;6.86;100.00;100714.69;5056689;28;20643;-66
2022/03/17 08:40:24;;;;;;;47.60;22.43;;;;;;;6.88;100.00;100710.47;5059594;28;20211;-67
2022/03/17 08:42:51;;;;;;;46.37;22.83;;;;;;;6.95;100.00;100709.63;5051392;28;20226;-66
2022/03/17 08:50:48;;;;;;;40.13;22.80;;;;;;;6.92;100.00;100719.81;5066419;28;20208;-66
2022/03/17 08:53:17;;;;;;;37.27;24.07;;;;;;;7.00;100.00;100725.81;5059746;28;20196;-66
2022/03/17 08:55:44;;;;;;;42.87;22.73;;;;;;;7.01;100.00;100727.50;5058646;28;20672;-66
2022/03/17 08:58:12;;;;;;;40.10;23.33;;;;;;;6.99;100.00;100728.34;5067147;28;20306;-66
2022/03/17 09:00:40;;;;;;;44.77;22.37;;;;;;;7.01;100.00;100732.59;5062534;28;20200;-67
2022/03/17 09:03:08;;;;;;;38.30;22.17;;;;;;;7.12;100.00;100732.66;5063078;28;20195;-67
2022/03/17 09:05:35;;;;;;;36.83;22.50;;;;;;;7.10;100.00;100742.03;5068137;28;20216;-66
2022/03/17 09:08:04;;;;;;;52.50;24.57;;;;;;;7.13;100.00;100742.91;5065704;28;20223;-66
2022/03/17 09:10:35;;;;;;;55.00;29.13;;;;;;;7.14;100.00;100718.25;5062347;28;20247;-66
2022/03/17 09:13:07;;;;;;;43.90;25.47;;;;;;;7.17;100.00;100739.50;5064996;28;20197;-67
2022/03/17 09:15:36;;;;;;;38.13;23.30;;;;;;;7.23;100.00;100738.69;5052781;28;20197;-67
2022/03/17 09:18:03;;;;;;;42.73;23.27;;;;;;;7.28;100.00;100745.50;5059327;28;20200;-66
2022/03/17 09:20:30;;;;;;;56.70;30.03;;;;;;;7.40;100.00;100753.22;5061196;28;20197;-66
2022/03/17 09:22:57;;;;;;;46.53;26.10;;;;;;;7.45;100.00;100744.72;5061321;28;20196;-66
2022/03/17 09:25:25;;;;;;;44.43;24.80;;;;;;;7.55;100.00;100754.97;5064533;28;20703;-66
2022/03/17 09:27:54;;;;;;;45.93;25.33;;;;;;;7.53;100.00;100760.94;5066297;28;20211;-66
2022/03/17 09:30:21;;;;;;;36.77;21.63;;;;;;;7.50;100.00;100763.44;5070839;28;20200;-66
2022/03/17 09:32:48;;;;;;;39.27;22.43;;;;;;;7.62;100.00;100760.97;5059330;28;20283;-67
2022/03/17 09:35:16;;;;;;;39.37;23.67;;;;;;;7.67;100.00;100759.25;5050639;28;20200;-66
2022/03/17 09:37:43;;;;;;;34.60;21.60;;;;;;;7.71;100.00;100764.41;5069003;28;20208;-66
2022/03/17 09:40:11;;;;;;;40.13;23.57;;;;;;;7.67;100.00;100766.91;5064898;28;20692;-67
2022/03/17 09:42:38;;;;;;;35.37;22.83;;;;;;;7.62;100.00;100766.06;5067007;28;20231;-66
2022/03/17 09:45:10;;;;;;;40.33;24.60;;;;;;;7.64;100.00;100772.03;5052443;28;20251;-66
2022/03/17 09:47:38;;;;;;;42.50;22.83;;;;;;;7.63;100.00;100771.16;5059688;28;20225;-66
2022/03/17 09:50:07;;;;;;;41.97;23.43;;;;;;;7.60;100.00;100775.41;5065702;28;20203;-67
2022/03/17 09:52:36;;;;;;;37.87;22.47;;;;;;;7.46;100.00;100762.63;5053546;28;20724;-67
2022/03/17 09:55:06;;;;;;;36.07;21.73;;;;;;;7.56;100.00;100782.19;5050071;28;21183;-67
2022/03/17 09:57:33;;;;;;;36.37;21.60;;;;;;;7.67;100.00;100782.25;5062183;28;20308;-67
2022/03/17 10:00:00;;;;;;;38.27;23.50;;;;;;;7.71;100.00;100787.38;5054155;28;20661;-66
2022/03/17 10:02:30;;;;;;;36.87;24.37;;;;;;;7.70;100.00;100789.91;5062706;28;20208;-62
2022/03/17 10:04:57;;;;;;;38.00;24.47;;;;;;;7.63;100.00;100783.06;5056837;28;20235;-63
2022/03/17 10:07:24;;;;;;;42.83;25.13;;;;;;;7.57;100.00;100790.69;5066213;28;20230;-62
2022/03/17 10:09:51;;;;;;;40.37;23.90;;;;;;;7.66;100.00;100786.47;5064263;28;20303;-63
2022/03/17 10:12:21;;;;;;;41.70;24.37;;;;;;;7.46;100.00;100771.97;5059625;28;20208;-63
2022/03/17 10:14:49;;;;;;;34.70;22.93;;;;;;;7.60;100.00;100785.59;5065656;28;20208;-63
2022/03/17 10:17:32;;;;;;;44.83;24.30;;;;;;;7.57;100.00;100791.56;5065668;28;20291;-63
2022/03/17 10:20:16;;;;;;;43.50;24.30;;;;;;;7.57;100.00;100785.59;5060297;28;20279;-63
2022/03/17 10:22:45;;;;;;;42.40;25.27;;;;;;;7.67;100.00;100772.03;5059154;28;20604;-63
2022/03/17 10:25:17;;;;;;;45.57;24.80;;;;;;;7.77;100.00;100796.75;5065584;28;20670;-63
2022/03/17 10:27:46;;;;;;;34.10;21.40;;;;;;;7.72;100.00;100798.44;5063554;28;20200;-62
2022/03/17 10:30:14;;;;;;;38.63;21.90;;;;;;;7.67;100.00;100798.41;5061276;28;20270;-63
2022/03/17 10:32:55;;;;;;;38.90;22.80;;;;;;;7.77;100.00;100794.19;5063752;28;20197;-62
2022/03/17 10:35:25;;;;;;;40.17;24.57;;;;;;;7.84;100.00;100793.38;5062423;28;20601;-63
2022/03/17 10:37:52;;;;;;;43.70;24.67;;;;;;;7.97;100.00;100791.69;5063899;28;20208;-63
2022/03/17 10:40:19;;;;;;;43.77;26.07;;;;;;;7.97;100.00;100797.66;5054167;28;20209;-63
2022/03/17 10:42:46;;;;;;;36.33;23.20;;;;;;;8.00;99.85;100797.66;5067236;28;20282;-63
2022/03/17 10:45:13;;;;;;;40.60;24.30;;;;;;;8.12;100.00;100800.25;5063341;28;20675;-63
2022/03/17 10:47:43;;;;;;;43.23;25.53;;;;;;;8.12;100.00;100790.03;5068577;28;20286;-63
2022/03/17 10:50:12;;;;;;;40.53;23.03;;;;;;;8.13;97.25;100796.84;5057838;28;20197;-62
2022/03/17 10:52:51;;;;;;;40.20;24.00;;;;;;;8.20;97.78;100790.91;5067299;28;20287;-63
2022/03/17 10:55:21;;;;;;;37.43;24.53;;;;;;;8.24;96.95;100802.00;5062962;28;20660;-63
2022/03/17 10:57:49;;;;;;;37.50;23.67;;;;;;;8.20;97.33;100798.56;5053376;28;20730;-63
2022/03/17 11:00:21;;;;;;;43.57;23.83;;;;;;;8.15;96.64;100802.81;5064122;28;20249;-64
2022/03/17 11:02:53;;;;;;;34.67;21.43;;;;;;;8.29;95.81;100811.38;5072028;28;20610;-62
2022/03/17 11:05:21;;;;;;;37.37;22.83;;;;;;;8.42;96.78;100797.78;5064766;28;20219;-62
2022/03/17 11:07:48;;;;;;;38.33;22.33;;;;;;;8.38;95.92;100801.16;5071150;28;20200;-63
2022/03/17 11:10:22;;;;;;;37.73;22.47;;;;;;;8.38;95.52;100796.06;5063271;28;20200;-64
2022/03/17 11:12:50;;;;;;;39.40;21.83;;;;;;;8.30;95.20;100792.63;5066219;28;20196;-63
2022/03/17 11:15:25;;;;;;;41.63;22.07;;;;;;;8.32;94.76;100784.97;5069172;28;20192;-63
2022/03/17 11:17:59;;;;;;;33.97;22.03;;;;;;;8.40;95.44;100779.00;5064427;28;20207;-63
2022/03/17 11:20:26;;;;;;;35.47;21.17;;;;;;;8.53;95.50;100789.28;5060249;28;20207;-62
2022/03/17 11:23:19;;;;;;;36.43;22.13;;;;;;;8.51;94.63;100785.84;5063379;28;20212;-63
2022/03/17 11:25:56;;;;;;;39.90;22.33;;;;;;;8.55;94.42;100777.31;5061052;28;20220;-63
2022/03/17 11:28:34;;;;;;;42.97;22.93;;;;;;;8.58;94.20;100785.00;5063385;28;20291;-63